Terminal Aerodrome Forecast
Issued by NWS Cleveland, OH

Home | Current Version | Previous Version | Graphics & Text | Print | Product List | Glossary On
Versions: 1 2 3 4 5 6 7 8 9 10 11 12 13 14 15 16 17 18 19 20 21 22 23
610
FTUS41 KCLE 192322
TAFCLE
TAF
KCLE 192322Z 2000/2106 26004KT P6SM FEW050 SCT200
     FM200200 20003KT P6SM SCT200
     FM200900 19003KT 5SM BR SCT250
     FM201300 22005KT P6SM SCT060 BKN150
     FM202000 22010KT P6SM VCTS BKN040CB=

USA.gov is the U.S. government's official web portal to all federal, state and local government web resources and services.